createdAt,value
2019-02-28T00:02:44.899Z,97029.93
2019-02-28T00:05:52.373Z,97020.09
2019-02-28T00:08:18.234Z,97018.03
2019-02-28T00:10:44.073Z,97008.83
2019-02-28T00:13:09.904Z,97002.59
2019-02-28T00:15:35.728Z,96996.83
2019-02-28T00:18:03.597Z,96999.62
2019-02-28T00:20:31.952Z,96988.41
2019-02-28T00:22:57.387Z,96990.82
2019-02-28T00:25:23.211Z,96989.80
2019-02-28T00:28:09.045Z,96992.52
2019-02-28T00:30:37.385Z,96985.43
2019-02-28T00:33:02.722Z,96990.87
2019-02-28T00:35:28.539Z,96990.62
2019-02-28T00:37:56.610Z,96991.34
2019-02-28T00:40:22.095Z,96986.62
2019-02-28T00:43:07.935Z,96988.89
2019-02-28T00:45:36.568Z,96975.30
2019-02-28T00:48:01.693Z,96973.27
2019-02-28T00:50:28.326Z,96973.47
2019-02-28T00:52:55.246Z,96970.42
2019-02-28T00:55:41.116Z,96962.58
2019-02-28T00:58:06.952Z,96963.95
2019-02-28T01:00:32.783Z,96962.18
2019-02-28T01:02:58.687Z,96956.19
2019-02-28T01:05:24.578Z,96952.69
2019-02-28T01:08:32.122Z,96956.05
2019-02-28T01:11:18.003Z,96951.63
2019-02-28T01:13:43.920Z,96950.80
2019-02-28T01:16:29.759Z,96943.76
2019-02-28T01:18:55.628Z,96939.80
2019-02-28T01:21:23.888Z,96933.86
2019-02-28T01:23:49.276Z,96929.32
2019-02-28T01:26:15.158Z,96926.58
2019-02-28T01:28:41.034Z,96923.95
2019-02-28T01:31:06.969Z,96916.90
2019-02-28T01:33:32.783Z,96916.02
2019-02-28T01:36:18.582Z,96903.47
2019-02-28T01:38:44.403Z,96904.45
2019-02-28T01:41:11.189Z,96908.51
2019-02-28T01:43:37.972Z,96899.98
2019-02-28T01:46:03.798Z,96899.42
2019-02-28T01:48:29.633Z,96886.16
2019-02-28T01:50:55.456Z,96883.08
2019-02-28T01:53:21.296Z,96876.91
2019-02-28T01:55:47.111Z,96872.39
2019-02-28T01:58:16.336Z,96868.48
2019-02-28T02:00:40.675Z,96864.75
2019-02-28T02:03:09.547Z,96871.86
2019-02-28T02:05:34.265Z,96857.27
2019-02-28T02:08:00.074Z,96848.56
2019-02-28T02:10:25.902Z,96843.98
2019-02-28T02:12:51.755Z,96837.74
2019-02-28T02:18:11.139Z,96825.01
2019-02-28T02:20:36.975Z,96821.09
2019-02-28T02:23:02.814Z,96812.75
2019-02-28T02:25:28.624Z,96807.39
2019-02-28T02:27:54.467Z,96800.41
2019-02-28T02:31:01.935Z,96805.37
2019-02-28T02:33:27.781Z,96804.50
2019-02-28T02:35:53.587Z,96805.19
2019-02-28T02:38:19.396Z,96808.52
2019-02-28T02:40:45.226Z,96800.58
2019-02-28T02:43:11.074Z,96803.83
2019-02-28T02:45:41.953Z,96801.47
2019-02-28T02:48:05.552Z,96794.57
2019-02-28T02:50:35.812Z,96799.43
2019-02-28T02:53:04.946Z,96804.67
2019-02-28T02:55:29.208Z,96799.30
2019-02-28T02:57:55.514Z,96789.88
2019-02-28T03:00:21.346Z,96786.48
2019-02-28T03:03:07.814Z,96790.95
2019-02-28T03:05:47.586Z,96789.55
2019-02-28T03:08:13.404Z,96786.65
2019-02-28T03:10:39.227Z,96784.28
2019-02-28T03:13:25.030Z,96775.84
2019-02-28T03:15:50.865Z,96782.41
2019-02-28T03:18:20.502Z,96780.28
2019-02-28T03:20:44.409Z,96777.03
2019-02-28T03:23:10.240Z,96765.24
2019-02-28T03:25:36.091Z,96762.28
2019-02-28T03:28:01.924Z,96765.64
2019-02-28T03:30:32.453Z,96773.02
2019-02-28T03:32:55.491Z,96762.59
2019-02-28T03:35:21.341Z,96763.41
2019-02-28T03:37:47.220Z,96761.60
2019-02-28T03:40:54.741Z,96760.39
2019-02-28T03:43:20.568Z,96765.99
2019-02-28T03:45:46.432Z,96762.90
2019-02-28T03:48:12.260Z,96760.42
2019-02-28T03:50:38.453Z,96765.88
2019-02-28T03:53:04.216Z,96756.18
2019-02-28T03:56:14.460Z,96753.94
2019-02-28T03:58:42.903Z,96752.00
2019-02-28T04:01:09.316Z,96749.91
2019-02-28T04:03:35.127Z,96749.12
2019-02-28T04:06:03.789Z,96753.00
2019-02-28T04:08:30.427Z,96743.17
2019-02-28T04:10:56.461Z,96744.20
2019-02-28T04:13:22.297Z,96744.73
2019-02-28T04:18:35.514Z,96731.95
2019-02-28T04:21:01.343Z,96727.31
2019-02-28T04:23:27.185Z,96731.38
2019-02-28T04:25:56.809Z,96725.72
2019-02-28T04:28:20.747Z,96727.98
2019-02-28T04:30:46.585Z,96725.97
2019-02-28T04:33:12.442Z,96710.20
2019-02-28T04:35:38.339Z,96705.39
2019-02-28T04:38:04.154Z,96699.42
2019-02-28T04:40:29.995Z,96705.73
2019-02-28T04:42:55.800Z,96698.61
2019-02-28T04:45:23.338Z,96699.89
2019-02-28T04:47:49.346Z,96695.42
2019-02-28T04:50:15.190Z,96695.41
2019-02-28T04:52:46.488Z,96692.39
2019-02-28T04:55:50.398Z,96684.36
2019-02-28T04:58:16.222Z,96685.25
2019-02-28T05:00:42.058Z,96688.62
2019-02-28T05:03:07.858Z,96675.81
2019-02-28T05:05:33.714Z,96675.34
2019-02-28T05:08:04.646Z,96673.44
2019-02-28T05:10:27.287Z,96666.73
2019-02-28T05:12:53.108Z,96669.13
2019-02-28T05:15:19.053Z,96673.47
2019-02-28T05:17:44.865Z,96668.75
2019-02-28T05:20:12.017Z,96662.95
2019-02-28T05:25:32.307Z,96666.39
2019-02-28T05:27:58.137Z,96674.48
2019-02-28T05:30:23.967Z,96666.55
2019-02-28T05:32:49.782Z,96672.08
2019-02-28T05:35:15.598Z,96661.00
2019-02-28T05:37:46.451Z,96670.52
2019-02-28T05:40:50.831Z,96670.08
2019-02-28T05:43:16.666Z,96673.06
2019-02-28T05:45:42.497Z,96671.12
2019-02-28T05:48:08.347Z,96659.08
2019-02-28T05:50:34.175Z,96662.44
2019-02-28T05:53:00.006Z,96664.34
2019-02-28T05:55:25.938Z,96668.38
2019-02-28T05:57:51.785Z,96667.62
2019-02-28T06:03:04.978Z,96673.13
2019-02-28T06:05:30.889Z,96675.98
2019-02-28T06:07:56.732Z,96672.14
2019-02-28T06:10:24.622Z,96675.74
2019-02-28T06:12:50.290Z,96672.37
2019-02-28T06:15:16.109Z,96681.64
2019-02-28T06:17:41.928Z,96674.45
2019-02-28T06:20:51.377Z,96671.99
2019-02-28T06:23:17.171Z,96681.52
2019-02-28T06:25:42.985Z,96677.47
2019-02-28T06:28:08.839Z,96675.70
2019-02-28T06:30:34.653Z,96674.52
2019-02-28T06:33:00.481Z,96671.48
2019-02-28T06:35:26.317Z,96666.84
2019-02-28T06:37:52.165Z,96668.89
2019-02-28T06:40:17.988Z,96674.05
2019-02-28T06:43:25.486Z,96677.36
2019-02-28T06:45:51.315Z,96675.15
2019-02-28T06:48:17.172Z,96674.95
2019-02-28T06:50:44.725Z,96674.55
2019-02-28T06:53:10.740Z,96670.28
2019-02-28T06:58:10.056Z,96675.73
2019-02-28T07:00:35.910Z,96677.60
2019-02-28T07:03:03.365Z,96679.77
2019-02-28T07:05:29.515Z,96675.88
2019-02-28T07:07:55.341Z,96678.47
2019-02-28T07:10:21.194Z,96674.89
2019-02-28T07:12:47.022Z,96661.42
2019-02-28T07:15:55.503Z,96658.95
2019-02-28T07:18:22.268Z,96657.94
2019-02-28T07:20:48.096Z,96663.98
2019-02-28T07:23:13.944Z,96666.88
2019-02-28T07:25:39.760Z,96665.11
2019-02-28T07:28:05.623Z,96661.98
2019-02-28T07:30:31.421Z,96667.00
2019-02-28T07:32:57.232Z,96658.36
2019-02-28T07:35:23.070Z,96642.76
2019-02-28T07:37:53.175Z,96655.34
2019-02-28T07:40:58.275Z,96659.89
2019-02-28T07:43:24.108Z,96662.23
2019-02-28T07:45:52.197Z,96649.33
2019-02-28T07:48:17.694Z,96652.53
2019-02-28T07:50:46.543Z,96655.43
2019-02-28T07:53:11.262Z,96643.48
2019-02-28T07:55:37.102Z,96647.66
2019-02-28T07:58:03.023Z,96649.75
2019-02-28T08:00:28.857Z,96648.96
2019-02-28T08:02:54.719Z,96643.23
2019-02-28T08:05:20.603Z,96648.19
2019-02-28T08:07:50.913Z,96661.20
2019-02-28T08:10:55.860Z,96665.35
2019-02-28T08:13:21.677Z,96661.14
2019-02-28T08:15:47.495Z,96660.52
2019-02-28T08:18:15.853Z,96658.31
2019-02-28T08:20:41.156Z,96655.37
2019-02-28T08:23:06.992Z,96649.03
2019-02-28T08:25:32.819Z,96647.30
2019-02-28T08:27:59.814Z,96644.92
2019-02-28T08:30:47.382Z,96646.44
2019-02-28T08:33:16.358Z,96644.86
2019-02-28T08:35:41.679Z,96642.01
2019-02-28T08:38:07.565Z,96647.41
2019-02-28T08:40:33.337Z,96642.22
2019-02-28T08:42:59.174Z,96639.97
2019-02-28T08:45:25.005Z,96645.03
2019-02-28T08:47:55.233Z,96648.52
2019-02-28T08:50:38.470Z,96643.22
2019-02-28T08:53:50.712Z,96643.22
2019-02-28T08:56:14.078Z,96638.72
2019-02-28T08:58:42.721Z,96635.64
2019-02-28T09:01:29.206Z,96628.94
2019-02-28T09:06:27.803Z,96614.95
2019-02-28T09:08:56.559Z,96628.90
2019-02-28T09:11:41.273Z,96628.62
2019-02-28T09:14:27.083Z,96611.81
2019-02-28T09:19:58.379Z,96622.03
2019-02-28T09:22:26.842Z,96622.03
2019-02-28T09:24:52.102Z,96632.65
2019-02-28T09:27:17.982Z,96616.26
2019-02-28T09:29:43.856Z,96626.78
2019-02-28T09:32:10.226Z,96624.50
2019-02-28T09:34:37.534Z,96625.89
2019-02-28T09:37:03.402Z,96620.53
2019-02-28T09:39:29.403Z,96615.58
2019-02-28T09:41:55.285Z,96626.87
2019-02-28T09:44:21.097Z,96624.10
2019-02-28T09:46:47.434Z,96622.20
2019-02-28T09:49:34.608Z,96605.50
2019-02-28T09:52:20.349Z,96608.64
2019-02-28T09:54:46.212Z,96608.64
2019-02-28T09:57:12.103Z,96610.13
2019-02-28T09:59:38.680Z,96603.39
2019-02-28T10:02:25.563Z,96607.00
2019-02-28T10:05:11.830Z,96613.23
2019-02-28T10:07:51.722Z,96635.88
2019-02-28T10:10:30.739Z,96617.16
2019-02-28T10:12:56.975Z,96617.16
2019-02-28T10:15:44.261Z,96602.81
2019-02-28T10:18:10.085Z,96602.81
2019-02-28T10:21:17.569Z,96610.38
2019-02-28T10:24:03.294Z,96626.58
2019-02-28T10:26:29.126Z,96626.58
2019-02-28T10:28:54.957Z,96617.86
2019-02-28T10:31:22.831Z,96618.08
2019-02-28T10:33:49.458Z,96612.81
2019-02-28T10:36:16.257Z,96612.11
2019-02-28T10:38:42.099Z,96610.31
2019-02-28T10:41:07.944Z,96608.17
2019-02-28T10:43:33.802Z,96610.08
2019-02-28T10:45:59.653Z,96616.70
2019-02-28T10:48:50.870Z,96612.20
2019-02-28T10:51:14.318Z,96624.91
2019-02-28T10:53:40.927Z,96624.91
2019-02-28T10:56:06.763Z,96626.48
2019-02-28T10:58:53.852Z,96624.91
2019-02-28T11:04:08.217Z,96612.53
2019-02-28T11:07:17.118Z,96607.51
2019-02-28T11:09:43.133Z,96616.70
2019-02-28T11:12:28.951Z,96609.86
2019-02-28T11:15:14.796Z,96619.53
2019-02-28T11:18:00.480Z,96619.07
2019-02-28T11:20:27.132Z,96619.07
2019-02-28T11:23:35.739Z,96606.94
2019-02-28T11:26:01.584Z,96606.94
2019-02-28T11:28:47.394Z,96608.23
2019-02-28T11:31:33.115Z,96626.92
2019-02-28T11:34:40.604Z,96611.77
2019-02-28T11:37:48.120Z,96619.16
2019-02-28T11:40:57.515Z,96615.28
2019-02-28T11:43:23.353Z,96606.76
2019-02-28T11:49:07.913Z,96597.38
2019-02-28T11:51:33.765Z,96592.16
2019-02-28T11:53:59.585Z,96602.46
2019-02-28T11:56:28.654Z,96589.62
2019-02-28T11:58:53.151Z,96585.20
2019-02-28T12:01:18.971Z,96581.41
2019-02-28T12:03:44.766Z,96572.31
2019-02-28T12:06:10.631Z,96583.12
2019-02-28T12:08:36.451Z,96572.66
2019-02-28T12:11:43.910Z,96579.28
2019-02-28T12:14:51.388Z,96569.75
2019-02-28T12:19:50.650Z,96566.78
2019-02-28T12:22:36.570Z,96576.63
2019-02-28T12:25:44.059Z,96583.28
2019-02-28T12:31:03.887Z,96580.14
2019-02-28T12:33:29.727Z,96584.27
2019-02-28T12:35:55.570Z,96579.52
2019-02-28T12:38:41.373Z,96576.91
2019-02-28T12:41:48.855Z,96564.20
2019-02-28T12:44:15.473Z,96550.36
2019-02-28T12:46:43.394Z,96525.66
2019-02-28T12:49:10.192Z,96543.54
2019-02-28T12:51:36.561Z,96547.47
2019-02-28T12:54:03.775Z,96556.17
2019-02-28T12:56:29.588Z,96550.16
2019-02-28T12:58:55.427Z,96555.72
2019-02-28T13:01:21.272Z,96551.91
2019-02-28T13:03:47.069Z,96543.71
2019-02-28T13:06:12.986Z,96555.42
2019-02-28T13:08:41.740Z,96547.95
2019-02-28T13:11:48.187Z,96546.63
2019-02-28T13:14:14.032Z,96542.36
2019-02-28T13:16:39.878Z,96542.08
2019-02-28T13:19:25.694Z,96526.29
2019-02-28T13:21:51.537Z,96536.77
2019-02-28T13:24:17.463Z,96523.48
2019-02-28T13:26:43.296Z,96525.66
2019-02-28T13:29:10.081Z,96534.73
2019-02-28T13:31:36.899Z,96516.95
2019-02-28T13:34:25.196Z,96516.80
2019-02-28T13:36:53.793Z,96496.27
2019-02-28T13:42:05.628Z,96502.87
2019-02-28T13:44:35.993Z,96497.98
2019-02-28T13:46:59.305Z,96492.90
2019-02-28T13:49:25.113Z,96493.45
2019-02-28T13:51:50.929Z,96505.11
2019-02-28T13:54:16.754Z,96505.75
2019-02-28T13:56:42.574Z,96502.97
2019-02-28T13:59:08.428Z,96493.31
2019-02-28T14:01:55.484Z,96502.55
2019-02-28T14:04:25.894Z,96511.22
2019-02-28T14:06:52.466Z,96501.06
2019-02-28T14:09:18.913Z,96499.36
2019-02-28T14:11:45.914Z,96510.33
2019-02-28T14:14:54.790Z,96509.23
2019-02-28T14:17:20.600Z,96508.12
2019-02-28T14:19:46.458Z,96499.30
2019-02-28T14:22:12.366Z,96489.67
2019-02-28T14:24:40.147Z,96492.38
2019-02-28T14:27:05.989Z,96486.81
2019-02-28T14:29:31.810Z,96478.72
2019-02-28T14:31:57.623Z,96476.62
2019-02-28T14:34:26.205Z,96483.48
2019-02-28T14:36:51.197Z,96487.11
2019-02-28T14:39:39.798Z,96483.36
2019-02-28T14:42:31.528Z,96480.99
2019-02-28T14:44:57.370Z,96470.66
2019-02-28T14:47:24.805Z,96475.05
2019-02-28T14:49:52.719Z,96467.69
2019-02-28T14:52:18.718Z,96423.00
2019-02-28T14:54:44.546Z,96462.74
2019-02-28T14:57:10.406Z,96465.17
2019-02-28T14:59:38.221Z,96461.48
2019-02-28T15:02:04.147Z,96460.80
2019-02-28T15:04:29.969Z,96462.53
2019-02-28T15:07:38.509Z,96456.05
2019-02-28T15:10:46.866Z,96456.34
2019-02-28T15:13:33.493Z,96450.81
2019-02-28T15:16:00.419Z,96439.47
2019-02-28T15:18:26.255Z,96443.06
2019-02-28T15:20:52.094Z,96448.70
2019-02-28T15:23:17.929Z,96441.19
2019-02-28T15:25:43.766Z,96444.50
2019-02-28T15:28:10.629Z,96462.39
2019-02-28T15:31:19.103Z,96453.08
2019-02-28T15:33:44.947Z,96445.34
2019-02-28T15:36:10.794Z,96462.87
2019-02-28T15:38:36.635Z,96445.95
2019-02-28T15:41:22.462Z,96456.30
2019-02-28T15:43:50.378Z,96448.86
2019-02-28T15:46:16.123Z,96462.97
2019-02-28T15:49:02.150Z,96447.64
2019-02-28T15:51:29.298Z,96452.83
2019-02-28T15:53:55.991Z,96456.63
2019-02-28T15:56:21.972Z,96450.81
2019-02-28T15:58:47.836Z,96450.97
2019-02-28T16:01:14.076Z,96463.23
2019-02-28T16:03:41.437Z,96455.95
2019-02-28T16:06:07.265Z,96449.97
2019-02-28T16:08:33.120Z,96452.34
2019-02-28T16:11:18.915Z,96450.88
2019-02-28T16:13:44.801Z,96449.53
2019-02-28T16:16:10.620Z,96455.00
2019-02-28T16:18:36.637Z,96442.53
2019-02-28T16:21:03.681Z,96460.54
2019-02-28T16:23:31.064Z,96456.55
2019-02-28T16:25:58.064Z,96456.13
2019-02-28T16:28:23.949Z,96449.80
2019-02-28T16:31:09.795Z,96448.22
2019-02-28T16:33:35.633Z,96456.94
2019-02-28T16:36:01.490Z,96452.79
2019-02-28T16:38:27.353Z,96444.27
2019-02-28T16:40:53.184Z,96449.53
2019-02-28T16:43:20.845Z,96439.54
2019-02-28T16:48:36.611Z,96449.61
2019-02-28T16:51:02.009Z,96443.52
2019-02-28T16:53:27.821Z,96447.30
2019-02-28T16:55:53.670Z,96452.27
2019-02-28T16:58:22.079Z,96455.31
2019-02-28T17:00:47.370Z,96451.22
2019-02-28T17:03:13.209Z,96467.91
2019-02-28T17:05:39.068Z,96460.92
2019-02-28T17:11:14.682Z,96468.35
2019-02-28T17:16:47.260Z,96465.77
2019-02-28T17:19:13.092Z,96465.00
2019-02-28T17:21:38.923Z,96458.92
2019-02-28T17:24:04.769Z,96460.00
2019-02-28T17:27:12.254Z,96462.87
2019-02-28T17:30:00.401Z,96466.85
2019-02-28T17:35:13.176Z,96461.48
2019-02-28T17:38:00.161Z,96461.42
2019-02-28T17:40:27.134Z,96462.31
2019-02-28T17:42:54.725Z,96457.56
2019-02-28T17:46:02.218Z,96461.22
2019-02-28T17:49:09.717Z,96468.06
2019-02-28T17:52:17.271Z,96470.83
2019-02-28T17:55:26.837Z,96472.37
2019-02-28T17:58:34.172Z,96477.70
2019-02-28T18:01:41.671Z,96476.77
2019-02-28T18:04:47.252Z,96478.36
2019-02-28T18:07:52.867Z,96481.95
2019-02-28T18:10:59.249Z,96484.58
2019-02-28T18:14:05.580Z,96478.52
2019-02-28T18:17:11.152Z,96503.87
2019-02-28T18:20:16.776Z,96485.28
2019-02-28T18:23:24.861Z,96473.13
2019-02-28T18:26:39.039Z,96458.80
2019-02-28T18:29:41.125Z,96458.80
2019-02-28T18:32:07.001Z,96467.02
2019-02-28T18:34:56.085Z,96466.91
2019-02-28T18:37:40.329Z,96468.81
2019-02-28T18:40:47.809Z,96468.81
2019-02-28T18:45:45.391Z,96460.54
2019-02-28T18:48:11.425Z,96455.09
2019-02-28T18:50:38.958Z,96456.22
2019-02-28T18:53:04.791Z,96455.80
2019-02-28T18:55:34.794Z,96455.54
2019-02-28T18:57:58.409Z,96447.34
2019-02-28T19:00:24.246Z,96444.79
2019-02-28T19:03:10.061Z,96462.45
2019-02-28T19:05:36.088Z,96455.17
2019-02-28T19:08:01.956Z,96449.58
2019-02-28T19:10:27.767Z,96449.52
2019-02-28T19:12:53.603Z,96453.48
2019-02-28T19:15:19.434Z,96453.48
2019-02-28T19:17:45.295Z,96446.50
2019-02-28T19:20:11.217Z,96449.67
2019-02-28T19:22:37.048Z,96449.22
2019-02-28T19:25:44.517Z,96455.41
2019-02-28T19:28:10.377Z,96458.82
2019-02-28T19:30:36.229Z,96440.14
2019-02-28T19:33:43.713Z,96461.05
2019-02-28T19:36:09.571Z,96461.05
2019-02-28T19:38:35.509Z,96455.64
2019-02-28T19:41:01.362Z,96456.02
2019-02-28T19:43:27.202Z,96458.96
2019-02-28T19:46:34.713Z,96465.70
2019-02-28T19:49:20.414Z,96444.45
2019-02-28T19:51:46.273Z,96444.45
2019-02-28T19:54:12.111Z,96456.37
2019-02-28T19:56:37.965Z,96465.37
2019-02-28T19:59:03.797Z,96472.66
2019-02-28T20:01:29.664Z,96480.75
2019-02-28T20:03:55.552Z,96475.75
2019-02-28T20:07:03.052Z,96473.86
2019-02-28T20:09:28.912Z,96477.84
2019-02-28T20:11:54.774Z,96484.30
2019-02-28T20:14:20.614Z,96485.80
2019-02-28T20:16:46.459Z,96490.47
2019-02-28T20:19:12.325Z,96502.95
2019-02-28T20:21:38.175Z,96498.84
2019-02-28T20:24:45.672Z,96509.17
2019-02-28T20:27:31.401Z,96507.69
2019-02-28T20:29:57.286Z,96512.92
2019-02-28T20:32:23.240Z,96512.92
2019-02-28T20:35:30.773Z,96502.77
2019-02-28T20:38:09.823Z,96518.50
2019-02-28T20:40:49.049Z,96521.47
2019-02-28T20:43:14.929Z,96521.47
2019-02-28T20:45:40.772Z,96525.63
2019-02-28T20:48:06.649Z,96526.92
2019-02-28T20:50:52.947Z,96522.63
2019-02-28T20:53:38.666Z,96514.86
2019-02-28T20:56:04.644Z,96514.86
2019-02-28T20:58:30.443Z,96514.29
2019-02-28T21:00:56.448Z,96529.56
2019-02-28T21:03:42.165Z,96526.83
2019-02-28T21:06:08.007Z,96526.83
2019-02-28T21:08:33.850Z,96543.66
2019-02-28T21:10:59.734Z,96553.13
2019-02-28T21:13:25.569Z,96560.29
2019-02-28T21:15:51.408Z,96562.70
2019-02-28T21:18:17.280Z,96556.81
2019-02-28T21:20:43.118Z,96563.09
2019-02-28T21:23:08.973Z,96561.38
2019-02-28T21:25:34.797Z,96553.95
2019-02-28T21:28:00.649Z,96559.91
2019-02-28T21:31:08.128Z,96565.89
2019-02-28T21:33:53.848Z,96567.86
2019-02-28T21:36:39.787Z,96567.86
2019-02-28T21:39:19.245Z,96556.97
2019-02-28T21:41:58.309Z,96565.91
2019-02-28T21:44:37.195Z,96575.01
2019-02-28T21:47:44.682Z,96575.01
2019-02-28T21:50:52.412Z,96575.58
2019-02-28T21:53:18.248Z,96576.76
2019-02-28T21:55:44.093Z,96569.94
2019-02-28T21:58:09.906Z,96576.05
2019-02-28T22:00:35.727Z,96582.83
2019-02-28T22:03:01.574Z,96585.17
2019-02-28T22:05:47.359Z,96578.33
2019-02-28T22:08:13.205Z,96574.38
2019-02-28T22:10:39.017Z,96575.02
2019-02-28T22:13:04.833Z,96574.09
2019-02-28T22:15:30.663Z,96564.91
2019-02-28T22:17:56.503Z,96569.22
2019-02-28T22:20:22.328Z,96572.58
2019-02-28T22:22:48.181Z,96563.80
2019-02-28T22:25:55.653Z,96559.06
2019-02-28T22:28:21.468Z,96551.74
2019-02-28T22:34:04.234Z,96563.45
2019-02-28T22:36:49.942Z,96547.38
2019-02-28T22:39:15.784Z,96547.38
2019-02-28T22:41:41.634Z,96552.56
2019-02-28T22:44:07.439Z,96555.98
2019-02-28T22:46:33.270Z,96560.58
2019-02-28T22:48:59.104Z,96565.95
2019-02-28T22:51:24.926Z,96572.23
2019-02-28T22:53:50.749Z,96569.22
2019-02-28T22:56:16.555Z,96562.31
2019-02-28T22:58:42.391Z,96560.31
2019-02-28T23:01:49.884Z,96561.17
2019-02-28T23:04:15.745Z,96549.44
2019-02-28T23:06:41.596Z,96546.34
2019-02-28T23:09:49.113Z,96547.52
2019-02-28T23:12:34.777Z,96544.88
2019-02-28T23:15:20.484Z,96525.41
2019-02-28T23:17:46.303Z,96525.41
2019-02-28T23:20:12.250Z,96528.50
2019-02-28T23:22:38.055Z,96534.19
2019-02-28T23:25:45.531Z,96530.09
2019-02-28T23:28:53.009Z,96532.58
2019-02-28T23:32:00.498Z,96532.58
2019-02-28T23:34:46.287Z,96540.95
2019-02-28T23:37:32.004Z,96530.47
2019-02-28T23:39:57.855Z,96530.47
2019-02-28T23:42:23.697Z,96520.70
2019-02-28T23:44:49.511Z,96530.56
2019-02-28T23:47:15.352Z,96525.52
2019-02-28T23:49:41.178Z,96518.70
2019-02-28T23:52:07.004Z,96517.47
2019-02-28T23:54:52.830Z,96518.07
2019-02-28T23:57:38.537Z,96509.84
